sensor_id;sensor_type;location;lat;lon;timestamp;temperature;humidity
38118;DHT22;23928;47.562;7.508;2023-07-20T00:00:45;20.70;99.90
38118;DHT22;23928;47.562;7.508;2023-07-20T00:03:12;20.50;99.90
38118;DHT22;23928;47.562;7.508;2023-07-20T00:05:45;20.60;99.90
38118;DHT22;23928;47.562;7.508;2023-07-20T00:08:10;20.70;99.90
38118;DHT22;23928;47.562;7.508;2023-07-20T00:10:36;20.70;99.90
38118;DHT22;23928;47.562;7.508;2023-07-20T00:13:01;20.60;99.90
38118;DHT22;23928;47.562;7.508;2023-07-20T00:15:27;20.70;99.90
38118;DHT22;23928;47.562;7.508;2023-07-20T00:17:52;20.60;99.90
38118;DHT22;23928;47.562;7.508;2023-07-20T00:20:18;20.70;99.90
38118;DHT22;23928;47.562;7.508;2023-07-20T00:22:43;20.70;99.90
38118;DHT22;23928;47.562;7.508;2023-07-20T00:25:09;20.70;99.90
38118;DHT22;23928;47.562;7.508;2023-07-20T00:27:37;20.70;99.90
38118;DHT22;23928;47.562;7.508;2023-07-20T00:30:04;20.80;99.90
38118;DHT22;23928;47.562;7.508;2023-07-20T00:32:29;20.60;99.90
38118;DHT22;23928;47.562;7.508;2023-07-20T00:34:55;20.20;99.90
38118;DHT22;23928;47.562;7.508;2023-07-20T00:37:21;20.20;99.90
38118;DHT22;23928;47.562;7.508;2023-07-20T00:39:46;20.20;99.90
38118;DHT22;23928;47.562;7.508;2023-07-20T00:42:12;20.40;99.90
38118;DHT22;23928;47.562;7.508;2023-07-20T00:44:37;20.20;99.90
38118;DHT22;23928;47.562;7.508;2023-07-20T00:47:03;19.90;99.90
38118;DHT22;23928;47.562;7.508;2023-07-20T00:49:29;20.10;99.90
38118;DHT22;23928;47.562;7.508;2023-07-20T00:51:55;20.10;99.90
38118;DHT22;23928;47.562;7.508;2023-07-20T00:54:20;20.00;99.90
38118;DHT22;23928;47.562;7.508;2023-07-20T00:56:46;20.10;99.90
38118;DHT22;23928;47.562;7.508;2023-07-20T00:59:13;20.00;99.90
38118;DHT22;23928;47.562;7.508;2023-07-20T01:01:38;20.00;99.90
38118;DHT22;23928;47.562;7.508;2023-07-20T01:04:04;19.90;99.90
38118;DHT22;23928;47.562;7.508;2023-07-20T01:06:50;20.00;99.90
38118;DHT22;23928;47.562;7.508;2023-07-20T01:15:03;19.40;99.90
38118;DHT22;23928;47.562;7.508;2023-07-20T01:17:28;19.50;99.90
38118;DHT22;23928;47.562;7.508;2023-07-20T01:19:54;19.60;99.90
38118;DHT22;23928;47.562;7.508;2023-07-20T01:33:17;19.30;99.90
38118;DHT22;23928;47.562;7.508;2023-07-20T01:35:47;19.50;99.90
38118;DHT22;23928;47.562;7.508;2023-07-20T01:38:14;19.60;99.90
38118;DHT22;23928;47.562;7.508;2023-07-20T01:40:40;19.40;99.90
38118;DHT22;23928;47.562;7.508;2023-07-20T01:43:06;19.30;99.90
38118;DHT22;23928;47.562;7.508;2023-07-20T01:45:32;19.40;99.90
38118;DHT22;23928;47.562;7.508;2023-07-20T01:47:57;19.30;99.90
38118;DHT22;23928;47.562;7.508;2023-07-20T01:50:23;19.40;99.90
38118;DHT22;23928;47.562;7.508;2023-07-20T01:52:48;19.30;99.90
38118;DHT22;23928;47.562;7.508;2023-07-20T01:55:14;19.50;99.90
38118;DHT22;23928;47.562;7.508;2023-07-20T01:57:40;19.50;99.90
38118;DHT22;23928;47.562;7.508;2023-07-20T02:00:06;19.40;99.90
38118;DHT22;23928;47.562;7.508;2023-07-20T02:02:32;19.20;99.90
38118;DHT22;23928;47.562;7.508;2023-07-20T02:04:58;19.40;99.90
38118;DHT22;23928;47.562;7.508;2023-07-20T02:07:23;19.40;99.90
38118;DHT22;23928;47.562;7.508;2023-07-20T02:09:49;19.20;99.90
38118;DHT22;23928;47.562;7.508;2023-07-20T02:12:15;19.10;99.90
38118;DHT22;23928;47.562;7.508;2023-07-20T02:14:40;19.40;99.90
38118;DHT22;23928;47.562;7.508;2023-07-20T02:17:06;19.50;99.90
38118;DHT22;23928;47.562;7.508;2023-07-20T02:19:31;19.30;99.90
38118;DHT22;23928;47.562;7.508;2023-07-20T02:21:57;19.30;99.90
38118;DHT22;23928;47.562;7.508;2023-07-20T02:24:23;19.20;99.90
38118;DHT22;23928;47.562;7.508;2023-07-20T02:26:50;18.90;99.90
38118;DHT22;23928;47.562;7.508;2023-07-20T02:29:15;18.90;99.90
38118;DHT22;23928;47.562;7.508;2023-07-20T02:31:41;18.90;99.90
38118;DHT22;23928;47.562;7.508;2023-07-20T02:34:08;18.70;99.90
38118;DHT22;23928;47.562;7.508;2023-07-20T02:36:34;18.60;99.90
38118;DHT22;23928;47.562;7.508;2023-07-20T02:39:00;18.60;99.90
38118;DHT22;23928;47.562;7.508;2023-07-20T02:41:30;18.50;99.90
38118;DHT22;23928;47.562;7.508;2023-07-20T02:43:55;18.40;99.90
38118;DHT22;23928;47.562;7.508;2023-07-20T02:46:22;18.20;99.90
38118;DHT22;23928;47.562;7.508;2023-07-20T02:48:47;18.20;99.90
38118;DHT22;23928;47.562;7.508;2023-07-20T02:51:13;18.20;99.90
38118;DHT22;23928;47.562;7.508;2023-07-20T02:53:39;18.00;99.90
38118;DHT22;23928;47.562;7.508;2023-07-20T02:56:04;18.00;99.90
38118;DHT22;23928;47.562;7.508;2023-07-20T02:58:30;17.90;99.90
38118;DHT22;23928;47.562;7.508;2023-07-20T03:00:56;17.90;99.90
38118;DHT22;23928;47.562;7.508;2023-07-20T03:03:22;17.90;99.90
38118;DHT22;23928;47.562;7.508;2023-07-20T03:05:47;18.00;99.90
38118;DHT22;23928;47.562;7.508;2023-07-20T03:08:19;17.90;99.90
38118;DHT22;23928;47.562;7.508;2023-07-20T03:10:45;18.00;99.90
38118;DHT22;23928;47.562;7.508;2023-07-20T03:13:10;17.90;99.90
38118;DHT22;23928;47.562;7.508;2023-07-20T03:15:36;17.90;99.90
38118;DHT22;23928;47.562;7.508;2023-07-20T03:18:01;17.90;99.90
38118;DHT22;23928;47.562;7.508;2023-07-20T03:20:29;17.80;99.90
38118;DHT22;23928;47.562;7.508;2023-07-20T03:22:54;17.90;99.90
38118;DHT22;23928;47.562;7.508;2023-07-20T03:25:20;17.80;99.90
38118;DHT22;23928;47.562;7.508;2023-07-20T03:27:46;17.80;99.90
38118;DHT22;23928;47.562;7.508;2023-07-20T03:30:12;17.80;99.90
38118;DHT22;23928;47.562;7.508;2023-07-20T03:32:37;17.80;99.90
38118;DHT22;23928;47.562;7.508;2023-07-20T03:35:03;17.80;99.90
38118;DHT22;23928;47.562;7.508;2023-07-20T03:37:30;17.70;99.90
38118;DHT22;23928;47.562;7.508;2023-07-20T03:39:55;17.70;99.90
38118;DHT22;23928;47.562;7.508;2023-07-20T03:42:21;17.60;99.90
38118;DHT22;23928;47.562;7.508;2023-07-20T03:44:46;17.60;99.90
38118;DHT22;23928;47.562;7.508;2023-07-20T03:47:12;17.60;99.90
38118;DHT22;23928;47.562;7.508;2023-07-20T03:49:37;17.60;99.90
38118;DHT22;23928;47.562;7.508;2023-07-20T03:52:03;17.60;99.90
38118;DHT22;23928;47.562;7.508;2023-07-20T03:54:29;17.50;99.90
38118;DHT22;23928;47.562;7.508;2023-07-20T03:56:55;17.40;99.90
38118;DHT22;23928;47.562;7.508;2023-07-20T03:59:21;17.40;99.90
38118;DHT22;23928;47.562;7.508;2023-07-20T04:01:46;17.50;99.90
38118;DHT22;23928;47.562;7.508;2023-07-20T04:04:13;17.50;99.90
38118;DHT22;23928;47.562;7.508;2023-07-20T04:06:39;17.40;99.90
38118;DHT22;23928;47.562;7.508;2023-07-20T04:09:04;17.40;99.90
38118;DHT22;23928;47.562;7.508;2023-07-20T04:11:34;17.40;99.90
38118;DHT22;23928;47.562;7.508;2023-07-20T04:14:00;17.30;99.90
38118;DHT22;23928;47.562;7.508;2023-07-20T04:16:25;17.20;99.90
38118;DHT22;23928;47.562;7.508;2023-07-20T04:18:54;17.30;99.90
38118;DHT22;23928;47.562;7.508;2023-07-20T04:21:19;17.40;99.90
38118;DHT22;23928;47.562;7.508;2023-07-20T04:23:45;17.40;99.90
38118;DHT22;23928;47.562;7.508;2023-07-20T04:26:11;17.30;99.90
38118;DHT22;23928;47.562;7.508;2023-07-20T04:28:38;17.40;99.90
38118;DHT22;23928;47.562;7.508;2023-07-20T04:31:15;17.20;99.90
38118;DHT22;23928;47.562;7.508;2023-07-20T04:33:41;17.20;99.90
38118;DHT22;23928;47.562;7.508;2023-07-20T04:36:07;17.20;99.90
38118;DHT22;23928;47.562;7.508;2023-07-20T04:38:33;17.20;99.90
38118;DHT22;23928;47.562;7.508;2023-07-20T04:40:59;17.20;99.90
38118;DHT22;23928;47.562;7.508;2023-07-20T04:43:25;17.20;99.90
38118;DHT22;23928;47.562;7.508;2023-07-20T04:45:51;17.40;99.90
38118;DHT22;23928;47.562;7.508;2023-07-20T04:48:17;17.50;99.90
38118;DHT22;23928;47.562;7.508;2023-07-20T04:50:46;17.50;99.90
38118;DHT22;23928;47.562;7.508;2023-07-20T04:53:12;17.60;99.90
38118;DHT22;23928;47.562;7.508;2023-07-20T04:55:39;17.50;99.90
38118;DHT22;23928;47.562;7.508;2023-07-20T04:58:05;17.60;99.90
38118;DHT22;23928;47.562;7.508;2023-07-20T05:00:32;17.70;99.90
38118;DHT22;23928;47.562;7.508;2023-07-20T05:02:58;17.70;99.90
38118;DHT22;23928;47.562;7.508;2023-07-20T05:05:24;17.90;99.90
38118;DHT22;23928;47.562;7.508;2023-07-20T05:07:49;18.00;99.90
38118;DHT22;23928;47.562;7.508;2023-07-20T05:10:16;18.00;99.90
38118;DHT22;23928;47.562;7.508;2023-07-20T05:12:41;18.10;99.90
38118;DHT22;23928;47.562;7.508;2023-07-20T05:15:07;18.00;99.90
38118;DHT22;23928;47.562;7.508;2023-07-20T05:17:33;18.00;99.90
38118;DHT22;23928;47.562;7.508;2023-07-20T05:19:58;18.10;99.90
38118;DHT22;23928;47.562;7.508;2023-07-20T05:22:24;18.20;99.90
38118;DHT22;23928;47.562;7.508;2023-07-20T05:24:50;18.30;99.90
38118;DHT22;23928;47.562;7.508;2023-07-20T05:27:16;18.40;99.90
38118;DHT22;23928;47.562;7.508;2023-07-20T05:29:47;18.70;99.90
38118;DHT22;23928;47.562;7.508;2023-07-20T05:32:13;18.90;99.90
38118;DHT22;23928;47.562;7.508;2023-07-20T05:34:39;19.20;99.90
38118;DHT22;23928;47.562;7.508;2023-07-20T05:37:05;19.40;99.90
38118;DHT22;23928;47.562;7.508;2023-07-20T05:39:32;19.50;99.90
38118;DHT22;23928;47.562;7.508;2023-07-20T05:41:58;19.60;99.90
38118;DHT22;23928;47.562;7.508;2023-07-20T05:44:24;19.60;99.90
38118;DHT22;23928;47.562;7.508;2023-07-20T05:46:49;19.50;99.90
38118;DHT22;23928;47.562;7.508;2023-07-20T05:49:15;19.80;99.90
38118;DHT22;23928;47.562;7.508;2023-07-20T05:51:40;19.60;99.90
38118;DHT22;23928;47.562;7.508;2023-07-20T05:54:06;19.60;99.90
38118;DHT22;23928;47.562;7.508;2023-07-20T05:56:32;19.50;99.90
38118;DHT22;23928;47.562;7.508;2023-07-20T05:58:57;19.50;99.90
38118;DHT22;23928;47.562;7.508;2023-07-20T06:01:23;19.50;99.90
38118;DHT22;23928;47.562;7.508;2023-07-20T06:03:52;19.60;99.90
38118;DHT22;23928;47.562;7.508;2023-07-20T06:06:17;19.50;99.90
38118;DHT22;23928;47.562;7.508;2023-07-20T06:08:43;19.60;99.90
38118;DHT22;23928;47.562;7.508;2023-07-20T06:11:09;19.70;99.90
38118;DHT22;23928;47.562;7.508;2023-07-20T06:13:35;19.80;99.90
38118;DHT22;23928;47.562;7.508;2023-07-20T06:16:00;19.90;99.90
38118;DHT22;23928;47.562;7.508;2023-07-20T06:18:27;19.90;99.90
38118;DHT22;23928;47.562;7.508;2023-07-20T06:20:52;19.90;99.90
38118;DHT22;23928;47.562;7.508;2023-07-20T06:23:21;19.90;99.90
38118;DHT22;23928;47.562;7.508;2023-07-20T06:25:47;20.20;99.90
38118;DHT22;23928;47.562;7.508;2023-07-20T06:28:13;20.40;99.90
38118;DHT22;23928;47.562;7.508;2023-07-20T06:30:39;20.30;99.90
38118;DHT22;23928;47.562;7.508;2023-07-20T06:33:05;20.10;99.90
38118;DHT22;23928;47.562;7.508;2023-07-20T06:35:32;20.10;99.90
38118;DHT22;23928;47.562;7.508;2023-07-20T06:37:57;20.10;99.90
38118;DHT22;23928;47.562;7.508;2023-07-20T06:40:24;20.20;99.90
38118;DHT22;23928;47.562;7.508;2023-07-20T06:42:50;20.40;99.90
38118;DHT22;23928;47.562;7.508;2023-07-20T06:45:15;20.60;99.90
38118;DHT22;23928;47.562;7.508;2023-07-20T06:47:41;20.50;99.90
38118;DHT22;23928;47.562;7.508;2023-07-20T06:50:07;20.50;99.90
38118;DHT22;23928;47.562;7.508;2023-07-20T06:52:33;20.50;99.90
38118;DHT22;23928;47.562;7.508;2023-07-20T06:54:59;20.50;99.90
38118;DHT22;23928;47.562;7.508;2023-07-20T06:57:25;20.80;99.90
38118;DHT22;23928;47.562;7.508;2023-07-20T06:59:51;21.00;99.90
38118;DHT22;23928;47.562;7.508;2023-07-20T07:02:16;20.80;99.90
38118;DHT22;23928;47.562;7.508;2023-07-20T07:04:42;20.70;99.90
38118;DHT22;23928;47.562;7.508;2023-07-20T07:07:08;20.80;99.90
38118;DHT22;23928;47.562;7.508;2023-07-20T07:09:35;20.80;99.90
38118;DHT22;23928;47.562;7.508;2023-07-20T07:12:00;21.20;99.90
38118;DHT22;23928;47.562;7.508;2023-07-20T07:14:26;21.40;99.90
38118;DHT22;23928;47.562;7.508;2023-07-20T07:16:51;21.30;99.90
38118;DHT22;23928;47.562;7.508;2023-07-20T07:19:17;21.10;99.90
38118;DHT22;23928;47.562;7.508;2023-07-20T07:21:42;21.10;99.90
38118;DHT22;23928;47.562;7.508;2023-07-20T07:24:08;21.20;99.90
38118;DHT22;23928;47.562;7.508;2023-07-20T07:26:36;21.10;99.90
38118;DHT22;23928;47.562;7.508;2023-07-20T07:29:02;21.00;99.90
38118;DHT22;23928;47.562;7.508;2023-07-20T07:31:29;21.20;99.90
38118;DHT22;23928;47.562;7.508;2023-07-20T07:33:56;21.40;99.90
38118;DHT22;23928;47.562;7.508;2023-07-20T07:36:21;21.40;99.90
38118;DHT22;23928;47.562;7.508;2023-07-20T07:38:47;21.60;99.90
38118;DHT22;23928;47.562;7.508;2023-07-20T07:41:14;21.40;99.90
38118;DHT22;23928;47.562;7.508;2023-07-20T07:43:39;21.30;99.90
38118;DHT22;23928;47.562;7.508;2023-07-20T07:46:05;21.40;99.90
38118;DHT22;23928;47.562;7.508;2023-07-20T07:48:30;21.60;99.90
38118;DHT22;23928;47.562;7.508;2023-07-20T07:50:56;21.80;99.90
38118;DHT22;23928;47.562;7.508;2023-07-20T07:53:22;22.00;99.90
38118;DHT22;23928;47.562;7.508;2023-07-20T07:55:48;22.10;99.90
38118;DHT22;23928;47.562;7.508;2023-07-20T07:58:13;22.10;99.90
38118;DHT22;23928;47.562;7.508;2023-07-20T08:00:39;21.60;99.90
38118;DHT22;23928;47.562;7.508;2023-07-20T08:03:08;21.90;99.90
38118;DHT22;23928;47.562;7.508;2023-07-20T08:05:33;21.80;99.90
38118;DHT22;23928;47.562;7.508;2023-07-20T08:08:01;21.90;99.90
38118;DHT22;23928;47.562;7.508;2023-07-20T08:10:26;22.00;99.90
38118;DHT22;23928;47.562;7.508;2023-07-20T08:12:52;22.10;99.90
38118;DHT22;23928;47.562;7.508;2023-07-20T08:15:17;22.10;99.90
38118;DHT22;23928;47.562;7.508;2023-07-20T08:17:43;22.40;99.90
38118;DHT22;23928;47.562;7.508;2023-07-20T08:20:13;22.60;99.90
38118;DHT22;23928;47.562;7.508;2023-07-20T08:22:38;22.40;99.90
38118;DHT22;23928;47.562;7.508;2023-07-20T08:25:07;22.20;99.90
38118;DHT22;23928;47.562;7.508;2023-07-20T08:27:33;22.10;99.90
38118;DHT22;23928;47.562;7.508;2023-07-20T08:29:59;22.30;99.90
38118;DHT22;23928;47.562;7.508;2023-07-20T08:32:25;22.30;99.90
38118;DHT22;23928;47.562;7.508;2023-07-20T08:34:51;22.30;99.90
38118;DHT22;23928;47.562;7.508;2023-07-20T08:37:16;22.60;99.90
38118;DHT22;23928;47.562;7.508;2023-07-20T08:39:42;22.60;99.90
38118;DHT22;23928;47.562;7.508;2023-07-20T08:42:09;22.60;99.90
38118;DHT22;23928;47.562;7.508;2023-07-20T08:44:37;22.60;99.90
38118;DHT22;23928;47.562;7.508;2023-07-20T08:47:04;22.80;99.90
38118;DHT22;23928;47.562;7.508;2023-07-20T08:49:34;22.70;99.90
38118;DHT22;23928;47.562;7.508;2023-07-20T08:52:00;22.50;99.90
38118;DHT22;23928;47.562;7.508;2023-07-20T08:54:30;22.60;99.90
38118;DHT22;23928;47.562;7.508;2023-07-20T08:57:03;22.40;99.90
38118;DHT22;23928;47.562;7.508;2023-07-20T08:59:29;22.50;99.90
38118;DHT22;23928;47.562;7.508;2023-07-20T09:01:57;22.70;99.90
38118;DHT22;23928;47.562;7.508;2023-07-20T09:04:24;23.20;99.90
38118;DHT22;23928;47.562;7.508;2023-07-20T09:06:50;23.10;99.90
38118;DHT22;23928;47.562;7.508;2023-07-20T09:09:16;23.40;99.90
38118;DHT22;23928;47.562;7.508;2023-07-20T09:11:42;23.40;99.90
38118;DHT22;23928;47.562;7.508;2023-07-20T09:14:09;23.20;99.90
38118;DHT22;23928;47.562;7.508;2023-07-20T09:16:48;23.10;99.90
38118;DHT22;23928;47.562;7.508;2023-07-20T09:19:18;23.20;99.90
38118;DHT22;23928;47.562;7.508;2023-07-20T09:21:51;22.80;99.90
38118;DHT22;23928;47.562;7.508;2023-07-20T09:24:20;22.80;99.90
38118;DHT22;23928;47.562;7.508;2023-07-20T09:26:47;22.80;99.90
38118;DHT22;23928;47.562;7.508;2023-07-20T09:29:19;22.90;99.90
38118;DHT22;23928;47.562;7.508;2023-07-20T09:32:01;23.60;99.90
38118;DHT22;23928;47.562;7.508;2023-07-20T09:34:29;24.20;99.90
38118;DHT22;23928;47.562;7.508;2023-07-20T09:36:55;23.50;99.90
38118;DHT22;23928;47.562;7.508;2023-07-20T09:39:21;23.10;99.90
38118;DHT22;23928;47.562;7.508;2023-07-20T09:41:46;22.70;99.90
38118;DHT22;23928;47.562;7.508;2023-07-20T09:44:14;22.80;99.90
38118;DHT22;23928;47.562;7.508;2023-07-20T09:46:47;22.70;99.90
38118;DHT22;23928;47.562;7.508;2023-07-20T09:49:14;22.70;99.90
38118;DHT22;23928;47.562;7.508;2023-07-20T09:51:41;23.10;99.90
38118;DHT22;23928;47.562;7.508;2023-07-20T09:54:07;23.20;99.90
38118;DHT22;23928;47.562;7.508;2023-07-20T09:56:35;23.50;99.90
38118;DHT22;23928;47.562;7.508;2023-07-20T09:59:00;23.50;99.90
38118;DHT22;23928;47.562;7.508;2023-07-20T10:01:26;23.60;99.90
38118;DHT22;23928;47.562;7.508;2023-07-20T10:03:54;24.00;99.90
38118;DHT22;23928;47.562;7.508;2023-07-20T10:06:24;24.60;99.90
38118;DHT22;23928;47.562;7.508;2023-07-20T10:08:53;24.60;99.90
38118;DHT22;23928;47.562;7.508;2023-07-20T10:11:22;24.20;99.90
38118;DHT22;23928;47.562;7.508;2023-07-20T10:13:51;23.90;99.90
38118;DHT22;23928;47.562;7.508;2023-07-20T10:16:29;24.50;99.90
38118;DHT22;23928;47.562;7.508;2023-07-20T10:21:29;24.20;99.90
38118;DHT22;23928;47.562;7.508;2023-07-20T10:23:59;23.90;99.90
38118;DHT22;23928;47.562;7.508;2023-07-20T10:26:26;24.10;99.90
38118;DHT22;23928;47.562;7.508;2023-07-20T10:28:52;24.20;99.90
38118;DHT22;23928;47.562;7.508;2023-07-20T10:31:18;24.10;99.90
38118;DHT22;23928;47.562;7.508;2023-07-20T10:33:45;23.90;99.90
38118;DHT22;23928;47.562;7.508;2023-07-20T10:36:11;24.00;99.90
38118;DHT22;23928;47.562;7.508;2023-07-20T10:41:35;24.70;99.90
38118;DHT22;23928;47.562;7.508;2023-07-20T10:44:04;24.90;99.90
38118;DHT22;23928;47.562;7.508;2023-07-20T10:49:07;24.60;99.90
38118;DHT22;23928;47.562;7.508;2023-07-20T10:51:42;24.80;99.90
38118;DHT22;23928;47.562;7.508;2023-07-20T10:56:56;24.60;99.90
38118;DHT22;23928;47.562;7.508;2023-07-20T11:01:57;24.70;99.90
38118;DHT22;23928;47.562;7.508;2023-07-20T11:04:41;24.60;99.90
38118;DHT22;23928;47.562;7.508;2023-07-20T11:07:08;24.70;99.90
38118;DHT22;23928;47.562;7.508;2023-07-20T11:09:38;24.70;99.90
38118;DHT22;23928;47.562;7.508;2023-07-20T11:12:11;24.70;99.90
38118;DHT22;23928;47.562;7.508;2023-07-20T11:14:54;24.60;99.90
38118;DHT22;23928;47.562;7.508;2023-07-20T11:17:19;25.00;99.90
38118;DHT22;23928;47.562;7.508;2023-07-20T11:19:55;25.40;99.90
38118;DHT22;23928;47.562;7.508;2023-07-20T11:22:21;25.20;99.90
38118;DHT22;23928;47.562;7.508;2023-07-20T11:24:47;25.20;99.90
38118;DHT22;23928;47.562;7.508;2023-07-20T11:27:14;24.90;99.90
38118;DHT22;23928;47.562;7.508;2023-07-20T11:29:40;25.40;99.90
38118;DHT22;23928;47.562;7.508;2023-07-20T11:32:06;25.80;99.90
38118;DHT22;23928;47.562;7.508;2023-07-20T11:34:32;25.80;99.90
38118;DHT22;23928;47.562;7.508;2023-07-20T11:36:58;24.90;99.90
38118;DHT22;23928;47.562;7.508;2023-07-20T11:39:24;24.80;99.90
38118;DHT22;23928;47.562;7.508;2023-07-20T11:41:57;25.00;99.90
38118;DHT22;23928;47.562;7.508;2023-07-20T11:44:25;25.30;99.90
38118;DHT22;23928;47.562;7.508;2023-07-20T11:49:29;25.50;99.90
38118;DHT22;23928;47.562;7.508;2023-07-20T11:51:56;25.40;99.90
38118;DHT22;23928;47.562;7.508;2023-07-20T11:54:21;26.20;99.90
38118;DHT22;23928;47.562;7.508;2023-07-20T11:56:48;26.50;99.90
38118;DHT22;23928;47.562;7.508;2023-07-20T11:59:13;26.40;99.90
38118;DHT22;23928;47.562;7.508;2023-07-20T12:01:39;26.30;99.90
38118;DHT22;23928;47.562;7.508;2023-07-20T12:04:05;26.70;99.90
38118;DHT22;23928;47.562;7.508;2023-07-20T12:06:32;27.00;99.90
38118;DHT22;23928;47.562;7.508;2023-07-20T12:08:59;26.00;99.90
38118;DHT22;23928;47.562;7.508;2023-07-20T12:11:38;25.50;99.90
38118;DHT22;23928;47.562;7.508;2023-07-20T12:14:06;25.50;99.90
38118;DHT22;23928;47.562;7.508;2023-07-20T12:16:32;25.50;99.90
38118;DHT22;23928;47.562;7.508;2023-07-20T12:19:12;25.50;99.90
38118;DHT22;23928;47.562;7.508;2023-07-20T12:21:39;25.20;99.90
38118;DHT22;23928;47.562;7.508;2023-07-20T12:24:06;26.30;99.90
38118;DHT22;23928;47.562;7.508;2023-07-20T12:26:33;26.90;99.90
38118;DHT22;23928;47.562;7.508;2023-07-20T12:28:59;26.30;99.90
38118;DHT22;23928;47.562;7.508;2023-07-20T12:31:26;26.60;99.90
38118;DHT22;23928;47.562;7.508;2023-07-20T12:33:52;26.40;99.90
38118;DHT22;23928;47.562;7.508;2023-07-20T12:36:18;26.10;99.90
38118;DHT22;23928;47.562;7.508;2023-07-20T12:38:45;26.20;99.90
38118;DHT22;23928;47.562;7.508;2023-07-20T12:41:12;26.90;99.90
38118;DHT22;23928;47.562;7.508;2023-07-20T12:43:38;26.50;99.90
38118;DHT22;23928;47.562;7.508;2023-07-20T12:46:05;26.50;99.90
38118;DHT22;23928;47.562;7.508;2023-07-20T12:48:31;26.30;99.90
38118;DHT22;23928;47.562;7.508;2023-07-20T12:50:57;26.70;99.90
38118;DHT22;23928;47.562;7.508;2023-07-20T12:53:22;26.30;99.90
38118;DHT22;23928;47.562;7.508;2023-07-20T12:55:48;26.30;99.90
38118;DHT22;23928;47.562;7.508;2023-07-20T12:58:14;26.40;99.90
38118;DHT22;23928;47.562;7.508;2023-07-20T13:00:39;27.00;99.90
38118;DHT22;23928;47.562;7.508;2023-07-20T13:03:06;26.40;99.90
38118;DHT22;23928;47.562;7.508;2023-07-20T13:05:32;26.50;99.90
38118;DHT22;23928;47.562;7.508;2023-07-20T13:07:59;27.30;99.90
38118;DHT22;23928;47.562;7.508;2023-07-20T13:10:24;26.00;99.90
38118;DHT22;23928;47.562;7.508;2023-07-20T13:12:50;26.20;99.90
38118;DHT22;23928;47.562;7.508;2023-07-20T13:15:17;26.10;99.90
38118;DHT22;23928;47.562;7.508;2023-07-20T13:17:43;26.10;99.90
38118;DHT22;23928;47.562;7.508;2023-07-20T13:20:10;26.30;99.90
38118;DHT22;23928;47.562;7.508;2023-07-20T13:22:39;26.00;99.90
38118;DHT22;23928;47.562;7.508;2023-07-20T13:25:06;26.20;99.90
38118;DHT22;23928;47.562;7.508;2023-07-20T13:27:32;26.30;99.90
38118;DHT22;23928;47.562;7.508;2023-07-20T13:30:01;25.90;99.90
38118;DHT22;23928;47.562;7.508;2023-07-20T13:32:31;26.10;99.90
38118;DHT22;23928;47.562;7.508;2023-07-20T13:34:57;26.40;99.90
38118;DHT22;23928;47.562;7.508;2023-07-20T13:37:23;26.50;99.90
38118;DHT22;23928;47.562;7.508;2023-07-20T13:39:48;26.50;99.90
38118;DHT22;23928;47.562;7.508;2023-07-20T13:42:14;26.30;99.90
38118;DHT22;23928;47.562;7.508;2023-07-20T13:44:40;26.20;99.90
38118;DHT22;23928;47.562;7.508;2023-07-20T13:47:06;27.10;99.90
38118;DHT22;23928;47.562;7.508;2023-07-20T13:49:31;27.20;99.90
38118;DHT22;23928;47.562;7.508;2023-07-20T13:51:57;27.50;99.90
38118;DHT22;23928;47.562;7.508;2023-07-20T13:54:24;27.80;99.90
38118;DHT22;23928;47.562;7.508;2023-07-20T13:56:50;26.70;99.90
38118;DHT22;23928;47.562;7.508;2023-07-20T13:59:16;26.50;99.90
38118;DHT22;23928;47.562;7.508;2023-07-20T14:01:41;26.90;99.90
38118;DHT22;23928;47.562;7.508;2023-07-20T14:04:07;26.50;99.90
38118;DHT22;23928;47.562;7.508;2023-07-20T14:06:35;27.20;99.90
38118;DHT22;23928;47.562;7.508;2023-07-20T14:09:01;27.50;99.90
38118;DHT22;23928;47.562;7.508;2023-07-20T14:11:26;27.40;99.90
38118;DHT22;23928;47.562;7.508;2023-07-20T14:13:53;27.50;99.90
38118;DHT22;23928;47.562;7.508;2023-07-20T14:16:19;27.40;99.90
38118;DHT22;23928;47.562;7.508;2023-07-20T14:18:45;28.00;99.90
38118;DHT22;23928;47.562;7.508;2023-07-20T14:21:13;27.10;99.90
38118;DHT22;23928;47.562;7.508;2023-07-20T14:23:38;27.50;99.90
38118;DHT22;23928;47.562;7.508;2023-07-20T14:26:04;27.90;99.90
38118;DHT22;23928;47.562;7.508;2023-07-20T14:28:34;27.40;99.90
38118;DHT22;23928;47.562;7.508;2023-07-20T14:31:00;27.00;99.90
38118;DHT22;23928;47.562;7.508;2023-07-20T14:33:25;27.70;99.90
38118;DHT22;23928;47.562;7.508;2023-07-20T14:35:51;27.20;99.90
38118;DHT22;23928;47.562;7.508;2023-07-20T14:38:16;26.90;99.90
38118;DHT22;23928;47.562;7.508;2023-07-20T14:40:42;28.00;99.90
38118;DHT22;23928;47.562;7.508;2023-07-20T14:43:08;27.60;99.90
38118;DHT22;23928;47.562;7.508;2023-07-20T14:45:34;28.10;99.90
38118;DHT22;23928;47.562;7.508;2023-07-20T14:48:02;27.60;99.90
38118;DHT22;23928;47.562;7.508;2023-07-20T14:50:28;26.30;99.90
38118;DHT22;23928;47.562;7.508;2023-07-20T14:52:54;26.20;99.90
38118;DHT22;23928;47.562;7.508;2023-07-20T14:55:20;26.20;99.90
38118;DHT22;23928;47.562;7.508;2023-07-20T14:57:45;26.60;99.90
38118;DHT22;23928;47.562;7.508;2023-07-20T15:00:11;27.10;99.90
38118;DHT22;23928;47.562;7.508;2023-07-20T15:02:37;26.70;99.90
38118;DHT22;23928;47.562;7.508;2023-07-20T15:05:06;26.60;99.90
38118;DHT22;23928;47.562;7.508;2023-07-20T15:07:32;26.80;99.90
38118;DHT22;23928;47.562;7.508;2023-07-20T15:09:58;28.30;99.90
38118;DHT22;23928;47.562;7.508;2023-07-20T15:12:24;28.10;99.90
38118;DHT22;23928;47.562;7.508;2023-07-20T15:15:03;27.40;99.90
38118;DHT22;23928;47.562;7.508;2023-07-20T15:17:30;27.90;99.90
38118;DHT22;23928;47.562;7.508;2023-07-20T15:19:56;27.90;99.90
38118;DHT22;23928;47.562;7.508;2023-07-20T15:22:22;28.10;99.90
38118;DHT22;23928;47.562;7.508;2023-07-20T15:24:47;28.50;99.90
38118;DHT22;23928;47.562;7.508;2023-07-20T15:27:13;28.40;99.90
38118;DHT22;23928;47.562;7.508;2023-07-20T15:29:39;28.10;99.90
38118;DHT22;23928;47.562;7.508;2023-07-20T15:32:05;29.10;99.90
38118;DHT22;23928;47.562;7.508;2023-07-20T15:34:31;29.10;99.90
38118;DHT22;23928;47.562;7.508;2023-07-20T15:36:57;28.50;99.90
38118;DHT22;23928;47.562;7.508;2023-07-20T15:39:23;28.00;99.90
38118;DHT22;23928;47.562;7.508;2023-07-20T15:41:49;27.80;99.90
38118;DHT22;23928;47.562;7.508;2023-07-20T15:44:15;28.10;99.90
38118;DHT22;23928;47.562;7.508;2023-07-20T15:49:06;28.20;99.90
38118;DHT22;23928;47.562;7.508;2023-07-20T15:51:33;28.10;99.90
38118;DHT22;23928;47.562;7.508;2023-07-20T15:53:59;28.90;99.90
38118;DHT22;23928;47.562;7.508;2023-07-20T15:56:24;28.90;99.90
38118;DHT22;23928;47.562;7.508;2023-07-20T15:58:50;28.70;99.90
38118;DHT22;23928;47.562;7.508;2023-07-20T16:01:15;29.40;99.90